createdAt,value
2019-05-10T00:00:14.171Z,11.70
2019-05-10T00:03:00.591Z,11.70
2019-05-10T00:05:47.280Z,11.70
2019-05-10T00:08:33.356Z,11.70
2019-05-10T00:11:06.164Z,11.70
2019-05-10T00:13:48.686Z,11.70
2019-05-10T00:16:17.390Z,11.70
2019-05-10T00:18:45.751Z,11.70
2019-05-10T00:21:14.132Z,11.70
2019-05-10T00:23:42.547Z,11.70
2019-05-10T00:26:10.918Z,11.70
2019-05-10T00:28:39.340Z,11.70
2019-05-10T00:31:07.719Z,11.70
2019-05-10T00:33:36.142Z,11.70
2019-05-10T00:36:04.554Z,11.60
2019-05-10T00:38:32.955Z,11.60
2019-05-10T00:41:01.330Z,11.70
2019-05-10T00:43:29.706Z,11.80
2019-05-10T00:45:58.096Z,11.80
2019-05-10T00:48:26.463Z,11.70
2019-05-10T00:50:54.943Z,11.60
2019-05-10T00:53:23.323Z,11.60
2019-05-10T00:55:51.691Z,11.70
2019-05-10T00:58:20.088Z,11.70
2019-05-10T01:00:48.467Z,11.70
2019-05-10T01:03:16.878Z,11.70
2019-05-10T01:05:45.257Z,11.60
2019-05-10T01:08:13.666Z,11.50
2019-05-10T01:10:42.037Z,11.50
2019-05-10T01:13:10.511Z,11.50
2019-05-10T01:15:38.907Z,11.50
2019-05-10T01:18:07.330Z,11.40
2019-05-10T01:20:35.699Z,11.40
2019-05-10T01:23:04.101Z,11.50
2019-05-10T01:25:35.553Z,11.50
2019-05-10T01:28:02.598Z,11.60
2019-05-10T01:30:30.954Z,11.60
2019-05-10T01:32:59.393Z,11.60
2019-05-10T01:35:27.796Z,11.70
2019-05-10T01:37:56.179Z,11.70
2019-05-10T01:40:24.649Z,11.60
2019-05-10T01:42:53.030Z,11.70
2019-05-10T01:45:21.417Z,11.70
2019-05-10T01:47:49.842Z,11.80
2019-05-10T01:50:18.256Z,11.80
2019-05-10T01:52:46.629Z,11.70
2019-05-10T01:55:15.027Z,11.60
2019-05-10T01:57:43.420Z,11.60
2019-05-10T02:00:12.596Z,11.70
2019-05-10T02:02:40.964Z,11.60
2019-05-10T02:05:09.355Z,11.60
2019-05-10T02:07:37.766Z,11.60
2019-05-10T02:10:06.633Z,11.60
2019-05-10T02:12:35.044Z,11.60
2019-05-10T02:15:04.285Z,11.60
2019-05-10T02:17:32.688Z,11.60
2019-05-10T02:20:01.086Z,11.60
2019-05-10T02:22:29.505Z,11.50
2019-05-10T02:24:57.883Z,11.40
2019-05-10T02:27:26.311Z,11.20
2019-05-10T02:29:54.759Z,11.10
2019-05-10T02:32:23.163Z,11.20
2019-05-10T02:34:51.573Z,11.20
2019-05-10T02:37:19.993Z,11.20
2019-05-10T02:39:48.383Z,11.10
2019-05-10T02:42:16.765Z,11.00
2019-05-10T02:44:45.161Z,11.00
2019-05-10T02:47:13.537Z,11.00
2019-05-10T02:49:41.939Z,11.00
2019-05-10T02:52:10.327Z,11.00
2019-05-10T02:54:38.735Z,11.10
2019-05-10T02:57:07.111Z,11.00
2019-05-10T02:59:35.492Z,10.90
2019-05-10T03:02:05.812Z,10.80
2019-05-10T03:04:35.653Z,10.70
2019-05-10T03:07:04.771Z,10.70
2019-05-10T03:09:33.526Z,10.80
2019-05-10T03:12:17.281Z,11.00
2019-05-10T03:14:45.681Z,11.10
2019-05-10T03:17:14.093Z,11.20
2019-05-10T03:19:42.522Z,11.20
2019-05-10T03:22:10.903Z,11.20
2019-05-10T03:24:39.298Z,11.30
2019-05-10T03:27:07.673Z,11.30
2019-05-10T03:29:36.087Z,11.40
2019-05-10T03:32:04.474Z,11.40
2019-05-10T03:34:32.885Z,11.30
2019-05-10T03:37:01.260Z,11.40
2019-05-10T03:39:29.672Z,11.40
2019-05-10T03:41:58.063Z,11.40
2019-05-10T03:44:26.445Z,11.40
2019-05-10T03:46:54.920Z,11.30
2019-05-10T03:49:23.288Z,11.30
2019-05-10T03:51:51.770Z,11.30
2019-05-10T03:54:20.148Z,11.30
2019-05-10T03:56:48.611Z,11.30
2019-05-10T03:59:17.012Z,11.30
2019-05-10T04:01:45.398Z,11.30
2019-05-10T04:04:13.776Z,11.30
2019-05-10T04:06:42.193Z,11.30
2019-05-10T04:09:10.622Z,11.40
2019-05-10T04:11:39.024Z,11.40
2019-05-10T04:14:07.448Z,11.40
2019-05-10T04:16:35.876Z,11.40
2019-05-10T04:19:04.256Z,11.40
2019-05-10T04:21:32.672Z,11.40
2019-05-10T04:24:01.046Z,11.40
2019-05-10T04:26:29.496Z,11.40
2019-05-10T04:28:57.836Z,11.40
2019-05-10T04:31:26.221Z,11.50
2019-05-10T04:33:54.629Z,11.50
2019-05-10T04:36:23.005Z,11.50
2019-05-10T04:38:51.421Z,11.50
2019-05-10T04:41:19.793Z,11.50
2019-05-10T04:43:48.206Z,11.40
2019-05-10T04:46:16.587Z,11.40
2019-05-10T04:48:45.030Z,11.40
2019-05-10T04:51:13.468Z,11.40
2019-05-10T04:53:41.823Z,11.40
2019-05-10T04:56:10.245Z,11.50
2019-05-10T04:58:38.608Z,11.60
2019-05-10T05:01:07.034Z,11.50
2019-05-10T05:03:35.399Z,11.50
2019-05-10T05:06:04.093Z,11.50
2019-05-10T05:08:32.557Z,11.50
2019-05-10T05:11:00.984Z,11.40
2019-05-10T05:13:29.382Z,11.50
2019-05-10T05:15:57.845Z,11.60
2019-05-10T05:18:26.224Z,11.60
2019-05-10T05:20:54.643Z,11.60
2019-05-10T05:23:23.168Z,11.60
2019-05-10T05:25:51.539Z,11.50
2019-05-10T05:28:23.283Z,11.60
2019-05-10T05:30:50.112Z,11.60
2019-05-10T05:33:18.589Z,11.70
2019-05-10T05:35:46.983Z,11.70
2019-05-10T05:38:15.367Z,11.80
2019-05-10T05:40:43.793Z,11.90
2019-05-10T05:43:12.180Z,12.00
2019-05-10T05:45:40.571Z,12.20
2019-05-10T05:48:08.974Z,12.30
2019-05-10T05:50:37.348Z,12.40
2019-05-10T05:53:05.755Z,12.40
2019-05-10T05:55:34.137Z,12.50
2019-05-10T05:58:04.909Z,12.60
2019-05-10T06:00:37.860Z,12.60
2019-05-10T06:03:02.801Z,12.60
2019-05-10T06:05:37.156Z,12.70
2019-05-10T06:08:01.242Z,12.70
2019-05-10T06:10:29.626Z,12.80
2019-05-10T06:12:58.053Z,12.90
2019-05-10T06:15:29.067Z,13.00
2019-05-10T06:17:57.680Z,13.10
2019-05-10T06:20:26.279Z,13.20
2019-05-10T06:23:05.614Z,13.30
2019-05-10T06:25:38.134Z,13.30
2019-05-10T06:27:54.832Z,13.30
2019-05-10T06:30:23.664Z,13.30
2019-05-10T06:32:53.133Z,13.40
2019-05-10T06:35:22.191Z,13.40
2019-05-10T06:37:50.565Z,13.60
2019-05-10T06:40:32.646Z,13.60
2019-05-10T06:42:49.045Z,13.50
2019-05-10T06:45:17.471Z,13.30
2019-05-10T06:47:47.819Z,13.10
2019-05-10T06:50:15.936Z,12.70
2019-05-10T06:52:44.344Z,12.50
2019-05-10T06:55:12.718Z,12.50
2019-05-10T06:57:41.243Z,12.50
2019-05-10T07:00:09.782Z,12.60
2019-05-10T07:02:38.217Z,12.70
2019-05-10T07:05:06.672Z,12.70
2019-05-10T07:07:43.990Z,12.80
2019-05-10T07:10:18.174Z,12.90
2019-05-10T07:12:39.047Z,13.00
2019-05-10T07:15:07.507Z,13.00
2019-05-10T07:17:41.369Z,13.00
2019-05-10T07:20:06.912Z,13.10
2019-05-10T07:22:35.296Z,13.40
2019-05-10T07:25:07.758Z,13.70
2019-05-10T07:27:38.180Z,13.90
2019-05-10T07:30:06.319Z,13.90
2019-05-10T07:32:34.884Z,13.90
2019-05-10T07:35:04.102Z,14.00
2019-05-10T07:37:32.585Z,14.20
2019-05-10T07:40:03.383Z,14.20
2019-05-10T07:42:31.046Z,14.10
2019-05-10T07:44:59.417Z,13.90
2019-05-10T07:47:30.247Z,13.70
2019-05-10T07:49:57.967Z,13.60
2019-05-10T07:52:26.375Z,13.60
2019-05-10T07:54:54.775Z,13.70
2019-05-10T07:57:24.610Z,13.70
2019-05-10T07:59:57.697Z,13.80
2019-05-10T08:02:23.399Z,14.00
2019-05-10T08:04:53.654Z,14.20
2019-05-10T08:07:22.874Z,14.20
2019-05-10T08:09:51.339Z,14.40
2019-05-10T08:12:19.833Z,14.50
2019-05-10T08:14:50.302Z,14.60
2019-05-10T08:17:19.194Z,14.50
2019-05-10T08:19:47.705Z,14.40
2019-05-10T08:22:16.194Z,14.20
2019-05-10T08:24:52.125Z,14.20
2019-05-10T08:27:15.051Z,14.10
2019-05-10T08:29:43.536Z,14.00
2019-05-10T08:32:12.830Z,13.90
2019-05-10T08:34:51.686Z,13.90
2019-05-10T08:37:12.844Z,13.90
2019-05-10T08:39:48.954Z,14.00
2019-05-10T08:42:30.540Z,14.10
2019-05-10T08:44:42.770Z,14.20
2019-05-10T08:47:15.747Z,14.30
2019-05-10T08:49:55.110Z,14.50
2019-05-10T08:52:12.265Z,14.60
2019-05-10T08:54:42.282Z,14.80
2019-05-10T08:57:17.852Z,14.80
2019-05-10T08:59:42.678Z,14.70
2019-05-10T09:02:12.567Z,14.70
2019-05-10T09:04:46.939Z,14.60
2019-05-10T09:07:11.877Z,14.70
2019-05-10T09:09:45.822Z,15.10
2019-05-10T09:12:12.329Z,15.70
2019-05-10T09:14:42.577Z,16.00
2019-05-10T09:17:14.806Z,15.90
2019-05-10T09:19:43.498Z,16.20
2019-05-10T09:22:12.466Z,16.40
2019-05-10T09:24:48.332Z,16.60
2019-05-10T09:27:12.879Z,16.70
2019-05-10T09:29:43.065Z,16.60
2019-05-10T09:32:12.518Z,16.50
2019-05-10T09:34:42.669Z,16.40
2019-05-10T09:37:14.529Z,16.10
2019-05-10T09:39:42.444Z,16.00
2019-05-10T09:42:25.055Z,15.90
2019-05-10T09:44:41.102Z,16.10
2019-05-10T09:47:11.937Z,16.50
2019-05-10T09:49:39.545Z,16.50
2019-05-10T09:52:12.653Z,16.30
2019-05-10T09:54:38.191Z,16.00
2019-05-10T09:57:08.213Z,16.00
2019-05-10T09:59:36.958Z,16.20
2019-05-10T10:02:14.501Z,16.20
2019-05-10T10:04:37.199Z,15.80
2019-05-10T10:07:05.495Z,15.60
2019-05-10T10:09:42.009Z,15.50
2019-05-10T10:12:03.908Z,15.30
2019-05-10T10:14:38.087Z,15.30
2019-05-10T10:17:03.402Z,15.40
2019-05-10T10:19:31.960Z,15.50
2019-05-10T10:22:00.354Z,15.60
2019-05-10T10:24:28.769Z,15.80
2019-05-10T10:26:58.123Z,16.10
2019-05-10T10:29:28.776Z,16.30
2019-05-10T10:31:58.952Z,16.50
2019-05-10T10:34:27.295Z,16.40
2019-05-10T10:36:57.942Z,15.90
2019-05-10T10:39:27.771Z,16.10
2019-05-10T10:41:57.153Z,16.40
2019-05-10T10:44:27.041Z,16.50
2019-05-10T10:46:58.068Z,16.60
2019-05-10T10:49:27.989Z,16.60
2019-05-10T10:51:57.348Z,16.40
2019-05-10T10:54:28.663Z,16.50
2019-05-10T10:56:59.306Z,16.60
2019-05-10T10:59:26.340Z,16.70
2019-05-10T11:02:25.221Z,16.90
2019-05-10T11:04:24.777Z,16.90
2019-05-10T11:07:09.311Z,16.90
2019-05-10T11:09:23.218Z,16.70
2019-05-10T11:11:51.771Z,16.50
2019-05-10T11:14:20.668Z,16.40
2019-05-10T11:16:52.907Z,16.40
2019-05-10T11:19:20.451Z,16.50
2019-05-10T11:21:51.228Z,16.50
2019-05-10T11:24:22.398Z,16.60
2019-05-10T11:26:51.504Z,16.70
2019-05-10T11:29:25.318Z,16.90
2019-05-10T11:32:10.406Z,17.10
2019-05-10T11:34:21.478Z,17.30
2019-05-10T11:36:51.222Z,17.50
2019-05-10T11:39:26.179Z,17.70
2019-05-10T11:41:52.784Z,17.60
2019-05-10T11:44:22.069Z,17.60
2019-05-10T11:46:50.826Z,17.60
2019-05-10T11:49:20.470Z,17.40
2019-05-10T11:51:54.726Z,17.50
2019-05-10T11:54:21.377Z,17.30
2019-05-10T11:56:51.962Z,17.30
2019-05-10T11:59:21.678Z,17.20
2019-05-10T12:01:56.875Z,17.00
2019-05-10T12:04:28.743Z,17.20
2019-05-10T12:06:51.469Z,17.50
2019-05-10T12:09:21.365Z,17.80
2019-05-10T12:11:56.462Z,17.70
2019-05-10T12:14:21.977Z,17.70
2019-05-10T12:16:54.227Z,17.60
2019-05-10T12:19:21.394Z,17.50
2019-05-10T12:21:52.562Z,17.50
2019-05-10T12:24:33.637Z,17.70
2019-05-10T12:29:21.301Z,18.00
2019-05-10T12:31:53.374Z,18.10
2019-05-10T12:34:20.711Z,18.30
2019-05-10T12:36:51.772Z,18.30
2019-05-10T12:39:21.420Z,18.40
2019-05-10T12:41:52.256Z,18.50
2019-05-10T12:44:19.575Z,18.60
2019-05-10T12:46:47.959Z,19.10
2019-05-10T12:49:16.370Z,19.00
2019-05-10T12:51:44.780Z,18.70
2019-05-10T12:54:13.190Z,18.50
2019-05-10T12:56:46.232Z,18.40
2019-05-10T12:59:11.641Z,18.10
2019-05-10T13:01:40.036Z,18.00
2019-05-10T13:04:14.729Z,18.00
2019-05-10T13:06:38.483Z,18.00
2019-05-10T13:09:07.532Z,18.00
2019-05-10T13:11:35.960Z,18.00
2019-05-10T13:14:07.293Z,18.00
2019-05-10T13:16:34.519Z,18.00
2019-05-10T13:19:02.895Z,18.10
2019-05-10T13:21:31.280Z,18.20
2019-05-10T13:23:59.709Z,17.90
2019-05-10T13:26:28.124Z,17.90
2019-05-10T13:28:56.532Z,17.70
2019-05-10T13:31:24.936Z,17.60
2019-05-10T13:33:53.355Z,17.30
2019-05-10T13:36:21.795Z,17.00
2019-05-10T13:38:50.185Z,17.30
2019-05-10T13:41:24.348Z,17.40
2019-05-10T13:43:48.825Z,17.30
2019-05-10T13:46:17.269Z,16.70
2019-05-10T13:48:45.668Z,16.70
2019-05-10T13:51:14.039Z,17.00
2019-05-10T13:53:42.434Z,17.30
2019-05-10T13:56:10.829Z,17.90
2019-05-10T13:58:39.307Z,17.90
2019-05-10T14:01:13.079Z,17.60
2019-05-10T14:03:45.275Z,17.40
2019-05-10T14:06:07.873Z,17.70
2019-05-10T14:08:36.255Z,17.50
2019-05-10T14:11:04.664Z,17.30
2019-05-10T14:13:35.836Z,17.90
2019-05-10T14:16:04.361Z,18.70
2019-05-10T14:18:32.911Z,18.90
2019-05-10T14:21:01.314Z,19.00
2019-05-10T14:23:35.126Z,19.60
2019-05-10T14:25:59.747Z,20.20
2019-05-10T14:28:28.125Z,20.20
2019-05-10T14:30:58.514Z,19.60
2019-05-10T14:33:26.590Z,19.10
2019-05-10T14:36:00.338Z,19.30
2019-05-10T14:38:25.117Z,19.90
2019-05-10T14:40:53.540Z,20.50
2019-05-10T14:43:22.111Z,20.90
2019-05-10T14:45:50.502Z,21.10
2019-05-10T14:48:27.810Z,21.00
2019-05-10T14:50:49.085Z,21.00
2019-05-10T14:53:19.904Z,21.30
2019-05-10T14:55:47.645Z,21.50
2019-05-10T14:58:16.065Z,21.60
2019-05-10T15:00:44.515Z,21.70
2019-05-10T15:03:12.932Z,21.30
2019-05-10T15:05:41.342Z,21.00
2019-05-10T15:08:10.029Z,21.00
2019-05-10T15:10:39.747Z,21.00
2019-05-10T15:13:08.905Z,21.00
2019-05-10T15:15:38.691Z,21.00
2019-05-10T15:18:07.214Z,21.10
2019-05-10T15:20:36.170Z,21.20
2019-05-10T15:23:04.699Z,21.20
2019-05-10T15:25:33.079Z,21.20
2019-05-10T15:28:01.832Z,21.00
2019-05-10T15:30:30.223Z,20.70
2019-05-10T15:32:58.610Z,20.50
2019-05-10T15:35:27.020Z,20.50
2019-05-10T15:37:55.400Z,20.50
2019-05-10T15:40:23.851Z,20.10
2019-05-10T15:42:52.650Z,19.80
2019-05-10T15:45:21.033Z,19.70
2019-05-10T15:47:51.686Z,19.70
2019-05-10T15:50:19.471Z,19.50
2019-05-10T15:52:48.788Z,19.20
2019-05-10T15:55:26.799Z,18.90
2019-05-10T15:57:51.594Z,18.80
2019-05-10T16:00:17.836Z,18.90
2019-05-10T16:02:46.291Z,19.00
2019-05-10T16:05:23.982Z,19.00
2019-05-10T16:07:46.286Z,19.00
2019-05-10T16:10:14.819Z,18.70
2019-05-10T16:12:44.618Z,18.30
2019-05-10T16:15:19.118Z,18.20
2019-05-10T16:17:43.272Z,17.90
2019-05-10T16:20:11.698Z,17.60
2019-05-10T16:22:40.248Z,17.40
2019-05-10T16:25:08.731Z,17.10
2019-05-10T16:27:41.514Z,17.00
2019-05-10T16:30:12.117Z,17.00
2019-05-10T16:32:37.904Z,17.00
2019-05-10T16:35:12.679Z,16.90
2019-05-10T16:37:36.321Z,17.00
2019-05-10T16:40:07.508Z,16.80
2019-05-10T16:42:36.080Z,16.80
2019-05-10T16:45:04.932Z,16.80
2019-05-10T16:47:33.349Z,16.70
2019-05-10T16:50:01.766Z,16.70
2019-05-10T16:52:30.143Z,16.60
2019-05-10T16:55:03.585Z,16.40
2019-05-10T16:57:35.380Z,16.30
2019-05-10T17:00:02.078Z,16.20
2019-05-10T17:02:28.728Z,16.00
2019-05-10T17:04:57.140Z,16.00
2019-05-10T17:07:26.495Z,16.00
2019-05-10T17:09:56.217Z,15.90
2019-05-10T17:12:27.563Z,15.70
2019-05-10T17:14:56.335Z,15.60
2019-05-10T17:17:24.979Z,15.30
2019-05-10T17:19:53.375Z,15.30
2019-05-10T17:22:21.891Z,15.30
2019-05-10T17:24:50.291Z,15.10
2019-05-10T17:27:18.702Z,15.10
2019-05-10T17:29:49.729Z,15.10
2019-05-10T17:32:18.872Z,15.00
2019-05-10T17:34:47.232Z,14.90
2019-05-10T17:37:15.700Z,14.90
2019-05-10T17:39:44.138Z,15.00
2019-05-10T17:42:12.543Z,15.00
2019-05-10T17:44:43.564Z,14.90
2019-05-10T17:47:10.993Z,14.70
2019-05-10T17:49:39.379Z,14.60
2019-05-10T17:52:07.806Z,14.50
2019-05-10T17:54:39.343Z,14.50
2019-05-10T17:57:10.763Z,14.40
2019-05-10T17:59:36.548Z,14.20
2019-05-10T18:02:04.977Z,14.10
2019-05-10T18:04:33.361Z,14.00
2019-05-10T18:07:01.795Z,14.00
2019-05-10T18:09:30.215Z,14.10
2019-05-10T18:11:58.645Z,14.10
2019-05-10T18:14:29.499Z,14.00
2019-05-10T18:16:57.149Z,14.00
2019-05-10T18:19:26.543Z,13.90
2019-05-10T18:22:00.016Z,14.00
2019-05-10T18:24:30.130Z,14.00
2019-05-10T18:26:55.239Z,14.00
2019-05-10T18:29:23.757Z,13.90
2019-05-10T18:31:55.746Z,13.70
2019-05-10T18:34:26.483Z,13.50
2019-05-10T18:36:52.378Z,13.40
2019-05-10T18:39:20.793Z,13.40
2019-05-10T18:41:49.206Z,13.40
2019-05-10T18:44:17.620Z,13.40
2019-05-10T18:46:46.027Z,13.50
2019-05-10T18:49:14.434Z,13.40
2019-05-10T18:51:42.855Z,13.30
2019-05-10T18:54:11.242Z,13.10
2019-05-10T18:56:39.743Z,13.10
2019-05-10T18:59:09.365Z,13.10
2019-05-10T19:01:38.620Z,13.00
2019-05-10T19:04:14.113Z,12.90
2019-05-10T19:06:38.121Z,13.00
2019-05-10T19:09:07.056Z,13.00
2019-05-10T19:11:39.067Z,12.90
2019-05-10T19:14:05.569Z,12.80
2019-05-10T19:16:34.352Z,12.70
2019-05-10T19:19:03.674Z,12.60
2019-05-10T19:21:32.608Z,12.60
2019-05-10T19:24:01.153Z,12.50
2019-05-10T19:26:31.507Z,12.50
2019-05-10T19:29:05.251Z,12.50
2019-05-10T19:31:31.768Z,12.50
2019-05-10T19:33:59.789Z,12.50
2019-05-10T19:36:28.215Z,12.40
2019-05-10T19:38:56.595Z,12.50
2019-05-10T19:41:25.580Z,12.50
2019-05-10T19:43:56.309Z,12.50
2019-05-10T19:46:30.109Z,12.40
2019-05-10T19:48:55.298Z,12.40
2019-05-10T19:51:23.759Z,12.40
2019-05-10T19:53:52.173Z,12.40
2019-05-10T19:56:20.602Z,12.30
2019-05-10T19:58:49.508Z,12.30
2019-05-10T20:01:18.014Z,12.30
2019-05-10T20:03:46.429Z,12.30
2019-05-10T20:06:14.885Z,12.30
2019-05-10T20:08:43.288Z,12.20
2019-05-10T20:11:11.759Z,12.20
2019-05-10T20:13:40.140Z,12.10
2019-05-10T20:16:08.553Z,12.10
2019-05-10T20:18:37.053Z,12.10
2019-05-10T20:21:05.614Z,12.10
2019-05-10T20:23:35.573Z,12.00
2019-05-10T20:26:04.009Z,11.90
2019-05-10T20:28:32.394Z,11.90
2019-05-10T20:31:00.785Z,11.90
2019-05-10T20:33:29.291Z,11.90
2019-05-10T20:35:57.700Z,11.90
2019-05-10T20:38:26.117Z,11.80
2019-05-10T20:40:54.565Z,11.80
2019-05-10T20:43:22.989Z,11.70
2019-05-10T20:45:51.369Z,11.70
2019-05-10T20:48:19.762Z,11.70
2019-05-10T20:50:48.169Z,11.60
2019-05-10T20:53:16.559Z,11.60
2019-05-10T20:55:44.951Z,11.60
2019-05-10T20:58:13.323Z,11.50
2019-05-10T21:00:41.731Z,11.60
2019-05-10T21:03:10.152Z,11.50
2019-05-10T21:05:38.523Z,11.40
2019-05-10T21:08:16.548Z,11.40
2019-05-10T21:10:36.956Z,11.40
2019-05-10T21:13:05.357Z,11.40
2019-05-10T21:15:33.765Z,11.40
2019-05-10T21:18:02.192Z,11.40
2019-05-10T21:20:30.580Z,11.40
2019-05-10T21:22:58.980Z,11.30
2019-05-10T21:25:27.382Z,11.30
2019-05-10T21:27:55.778Z,11.30
2019-05-10T21:30:24.219Z,11.20
2019-05-10T21:32:52.618Z,11.20
2019-05-10T21:35:21.026Z,11.20
2019-05-10T21:37:49.416Z,11.20
2019-05-10T21:40:17.830Z,11.10
2019-05-10T21:42:46.249Z,11.10
2019-05-10T21:45:14.623Z,11.00
2019-05-10T21:47:51.338Z,11.00
2019-05-10T21:50:13.098Z,11.00
2019-05-10T21:52:41.510Z,10.90
2019-05-10T21:55:09.888Z,10.80
2019-05-10T21:57:38.418Z,10.80
2019-05-10T22:00:08.548Z,10.70
2019-05-10T22:02:36.971Z,10.60
2019-05-10T22:05:06.097Z,10.60
2019-05-10T22:07:35.434Z,10.50
2019-05-10T22:10:07.868Z,10.60
2019-05-10T22:12:36.349Z,10.50
2019-05-10T22:15:05.795Z,10.60
2019-05-10T22:17:34.204Z,10.60
2019-05-10T22:20:02.756Z,10.60
2019-05-10T22:22:31.166Z,10.70
2019-05-10T22:24:59.578Z,10.70
2019-05-10T22:27:27.980Z,10.90
2019-05-10T22:29:56.340Z,10.80
2019-05-10T22:32:24.821Z,10.80
2019-05-10T22:34:53.208Z,10.80
2019-05-10T22:37:21.627Z,10.90
2019-05-10T22:39:50.036Z,10.80
2019-05-10T22:42:18.547Z,10.70
2019-05-10T22:44:46.947Z,10.60
2019-05-10T22:47:15.343Z,10.50
2019-05-10T22:49:43.737Z,10.50
2019-05-10T22:52:12.217Z,10.60
2019-05-10T22:54:40.615Z,10.60
2019-05-10T22:57:09.027Z,10.60
2019-05-10T22:59:37.401Z,10.60
2019-05-10T23:02:05.836Z,10.60
2019-05-10T23:04:34.223Z,10.50
2019-05-10T23:07:02.637Z,10.50
2019-05-10T23:09:31.002Z,10.40
2019-05-10T23:11:59.419Z,10.40
2019-05-10T23:14:27.877Z,10.40
2019-05-10T23:16:56.167Z,10.30
2019-05-10T23:19:24.580Z,10.20
2019-05-10T23:21:53.013Z,10.10
2019-05-10T23:24:23.147Z,10.10
2019-05-10T23:26:51.448Z,9.90
2019-05-10T23:29:20.670Z,9.90
2019-05-10T23:31:49.072Z,9.80
2019-05-10T23:34:17.464Z,9.80
2019-05-10T23:36:45.864Z,9.80
2019-05-10T23:39:14.254Z,9.80
2019-05-10T23:41:42.667Z,9.80
2019-05-10T23:44:11.082Z,9.70
2019-05-10T23:46:39.492Z,9.70
2019-05-10T23:49:07.871Z,9.70
2019-05-10T23:51:36.264Z,9.70
2019-05-10T23:54:04.666Z,9.70
2019-05-10T23:56:33.053Z,9.70
2019-05-10T23:59:01.466Z,9.60
